createdAt,value
2019-03-31T00:00:08.026Z,100.00
2019-03-31T00:02:37.349Z,100.00
2019-03-31T00:05:07.444Z,100.00
2019-03-31T00:07:36.825Z,100.00
2019-03-31T00:10:08.206Z,100.00
2019-03-31T00:12:37.531Z,100.00
2019-03-31T00:15:08.930Z,100.00
2019-03-31T00:17:38.235Z,100.00
2019-03-31T00:20:08.144Z,100.00
2019-03-31T00:22:37.481Z,100.00
2019-03-31T00:25:07.636Z,100.00
2019-03-31T00:27:36.964Z,100.00
2019-03-31T00:30:07.068Z,100.00
2019-03-31T00:32:36.661Z,100.00
2019-03-31T00:35:06.324Z,100.00
2019-03-31T00:37:35.702Z,100.00
2019-03-31T00:40:08.576Z,100.00
2019-03-31T00:42:38.353Z,100.00
2019-03-31T00:45:08.306Z,100.00
2019-03-31T00:47:38.123Z,100.00
2019-03-31T00:50:07.776Z,100.00
2019-03-31T00:52:37.078Z,100.00
2019-03-31T00:55:07.234Z,100.00
2019-03-31T00:57:36.623Z,100.00
2019-03-31T01:00:09.546Z,100.00
2019-03-31T01:02:38.854Z,100.00
2019-03-31T01:05:08.402Z,100.00
2019-03-31T01:07:38.015Z,100.00
2019-03-31T01:10:08.554Z,100.00
2019-03-31T01:12:37.991Z,100.00
2019-03-31T01:15:11.055Z,100.00
2019-03-31T01:17:40.555Z,100.00
2019-03-31T01:20:10.472Z,100.00
2019-03-31T01:22:39.777Z,100.00
2019-03-31T01:25:09.526Z,100.00
2019-03-31T01:27:38.976Z,100.00
2019-03-31T01:30:11.381Z,100.00
2019-03-31T01:32:41.278Z,100.00
2019-03-31T01:35:11.427Z,100.00
2019-03-31T01:37:40.931Z,100.00
2019-03-31T01:40:10.392Z,100.00
2019-03-31T01:42:39.792Z,100.00
2019-03-31T01:45:10.089Z,100.00
2019-03-31T01:47:39.608Z,100.00
2019-03-31T01:50:12.219Z,100.00
2019-03-31T01:52:41.766Z,100.00
2019-03-31T01:55:11.844Z,100.00
2019-03-31T01:57:41.340Z,100.00
2019-03-31T02:00:29.358Z,100.00
2019-03-31T02:02:59.245Z,100.00
2019-03-31T02:05:29.490Z,100.00
2019-03-31T02:07:59.207Z,100.00
2019-03-31T02:10:28.624Z,100.00
2019-03-31T02:12:58.328Z,100.00
2019-03-31T02:15:27.783Z,100.00
2019-03-31T02:17:57.158Z,100.00
2019-03-31T02:20:26.936Z,100.00
2019-03-31T02:22:56.400Z,100.00
2019-03-31T02:25:25.793Z,100.00
2019-03-31T02:27:55.128Z,100.00
2019-03-31T02:30:24.462Z,100.00
2019-03-31T02:32:53.798Z,100.00
2019-03-31T02:35:23.314Z,100.00
2019-03-31T02:37:52.663Z,100.00
2019-03-31T02:40:21.973Z,100.00
2019-03-31T02:42:51.305Z,100.00
2019-03-31T02:45:20.969Z,100.00
2019-03-31T02:47:50.268Z,100.00
2019-03-31T02:50:37.781Z,100.00
2019-03-31T02:53:07.168Z,100.00
2019-03-31T02:55:37.755Z,100.00
2019-03-31T02:58:07.905Z,100.00
2019-03-31T03:00:38.350Z,100.00
2019-03-31T03:03:08.119Z,100.00
2019-03-31T03:05:40.466Z,100.00
2019-03-31T03:08:10.635Z,100.00
2019-03-31T03:10:41.914Z,100.00
2019-03-31T03:13:13.136Z,100.00
2019-03-31T03:15:57.631Z,100.00
2019-03-31T03:18:27.029Z,100.00
2019-03-31T03:20:56.382Z,100.00
2019-03-31T03:23:25.675Z,100.00
2019-03-31T03:25:56.756Z,100.00
2019-03-31T03:28:26.785Z,100.00
2019-03-31T03:30:56.578Z,100.00
2019-03-31T03:33:26.402Z,100.00
2019-03-31T03:35:56.167Z,100.00
2019-03-31T03:38:25.466Z,100.00
2019-03-31T03:40:54.873Z,100.00
2019-03-31T03:43:24.214Z,100.00
2019-03-31T03:45:53.529Z,100.00
2019-03-31T03:48:22.826Z,100.00
2019-03-31T03:50:52.158Z,100.00
2019-03-31T03:53:21.451Z,100.00
2019-03-31T03:55:50.861Z,100.00
2019-03-31T03:58:20.248Z,100.00
2019-03-31T04:00:49.758Z,100.00
2019-03-31T04:03:30.050Z,100.00
2019-03-31T04:05:50.329Z,100.00
2019-03-31T04:08:19.913Z,100.00
2019-03-31T04:10:52.501Z,100.00
2019-03-31T04:13:21.953Z,100.00
2019-03-31T04:15:51.504Z,100.00
2019-03-31T04:18:21.114Z,100.00
2019-03-31T04:20:50.428Z,100.00
2019-03-31T04:23:19.750Z,100.00
2019-03-31T04:25:49.147Z,100.00
2019-03-31T04:28:18.511Z,100.00
2019-03-31T04:30:47.816Z,100.00
2019-03-31T04:33:17.167Z,100.00
2019-03-31T04:35:46.459Z,100.00
2019-03-31T04:38:15.918Z,100.00
2019-03-31T04:40:45.256Z,100.00
2019-03-31T04:43:15.054Z,100.00
2019-03-31T04:45:44.693Z,100.00
2019-03-31T04:48:14.093Z,100.00
2019-03-31T04:50:44.073Z,100.00
2019-03-31T04:53:13.366Z,100.00
2019-03-31T04:55:42.921Z,100.00
2019-03-31T04:58:12.493Z,100.00
2019-03-31T05:00:42.554Z,100.00
2019-03-31T05:03:12.646Z,100.00
2019-03-31T05:05:42.246Z,100.00
2019-03-31T05:08:11.963Z,100.00
2019-03-31T05:10:41.446Z,100.00
2019-03-31T05:13:11.187Z,100.00
2019-03-31T05:15:40.567Z,100.00
2019-03-31T05:18:09.876Z,100.00
2019-03-31T05:20:39.202Z,100.00
2019-03-31T05:23:08.817Z,100.00
2019-03-31T05:25:38.139Z,100.00
2019-03-31T05:28:07.672Z,100.00
2019-03-31T05:30:37.797Z,100.00
2019-03-31T05:33:07.114Z,100.00
2019-03-31T05:35:36.443Z,100.00
2019-03-31T05:38:05.734Z,100.00
2019-03-31T05:40:35.060Z,100.00
2019-03-31T05:43:04.366Z,100.00
2019-03-31T05:45:33.884Z,100.00
2019-03-31T05:48:03.233Z,100.00
2019-03-31T05:50:32.834Z,100.00
2019-03-31T05:53:02.437Z,100.00
2019-03-31T05:55:31.844Z,100.00
2019-03-31T05:58:01.355Z,100.00
2019-03-31T06:00:35.057Z,100.00
2019-03-31T06:03:04.646Z,100.00
2019-03-31T06:05:34.053Z,100.00
2019-03-31T06:08:03.441Z,100.00
2019-03-31T06:10:32.764Z,100.00
2019-03-31T06:13:02.110Z,100.00
2019-03-31T06:15:31.417Z,100.00
2019-03-31T06:18:00.955Z,100.00
2019-03-31T06:20:30.252Z,100.00
2019-03-31T06:22:59.586Z,100.00
2019-03-31T06:25:29.187Z,100.00
2019-03-31T06:27:58.909Z,100.00
2019-03-31T06:30:28.605Z,100.00
2019-03-31T06:32:57.912Z,99.56
2019-03-31T06:35:27.692Z,99.56
2019-03-31T06:37:57.289Z,94.81
2019-03-31T06:40:28.085Z,93.74
2019-03-31T06:42:57.512Z,93.84
2019-03-31T06:45:27.889Z,93.09
2019-03-31T06:47:57.362Z,92.17
2019-03-31T06:50:26.666Z,91.19
2019-03-31T06:52:56.084Z,91.88
2019-03-31T06:55:25.781Z,91.41
2019-03-31T06:57:55.105Z,90.70
2019-03-31T07:00:24.688Z,91.09
2019-03-31T07:02:54.351Z,88.62
2019-03-31T07:05:23.853Z,88.34
2019-03-31T07:07:53.175Z,86.92
2019-03-31T07:10:22.828Z,83.02
2019-03-31T07:12:52.396Z,83.41
2019-03-31T07:15:22.031Z,86.66
2019-03-31T07:17:51.367Z,84.54
2019-03-31T07:20:21.039Z,85.68
2019-03-31T07:22:51.795Z,84.81
2019-03-31T07:25:21.815Z,87.27
2019-03-31T07:27:51.142Z,85.27
2019-03-31T07:30:21.220Z,84.64
2019-03-31T07:32:50.979Z,86.37
2019-03-31T07:35:20.383Z,86.58
2019-03-31T07:37:49.720Z,86.02
2019-03-31T07:40:21.954Z,86.27
2019-03-31T07:42:51.601Z,84.77
2019-03-31T07:45:21.669Z,82.27
2019-03-31T07:47:50.995Z,83.68
2019-03-31T07:50:20.883Z,84.70
2019-03-31T07:52:50.169Z,81.67
2019-03-31T07:55:20.739Z,75.79
2019-03-31T07:57:50.077Z,73.09
2019-03-31T08:00:22.320Z,74.67
2019-03-31T08:02:51.731Z,70.56
2019-03-31T08:05:32.375Z,69.19
2019-03-31T08:07:52.169Z,70.65
2019-03-31T08:10:22.133Z,66.54
2019-03-31T08:12:51.774Z,63.05
2019-03-31T08:15:21.186Z,64.16
2019-03-31T08:17:50.577Z,66.40
2019-03-31T08:20:20.451Z,70.98
2019-03-31T08:22:50.043Z,68.10
2019-03-31T08:25:20.272Z,63.90
2019-03-31T08:27:49.886Z,61.67
2019-03-31T08:30:20.060Z,63.22
2019-03-31T08:32:49.396Z,62.25
2019-03-31T08:35:18.795Z,64.46
2019-03-31T08:37:48.321Z,62.15
2019-03-31T08:40:18.395Z,62.42
2019-03-31T08:42:47.843Z,65.19
2019-03-31T08:45:17.237Z,64.28
2019-03-31T08:47:46.536Z,59.59
2019-03-31T08:50:16.460Z,62.72
2019-03-31T08:52:45.771Z,63.93
2019-03-31T08:55:15.610Z,62.78
2019-03-31T08:57:45.191Z,61.56
2019-03-31T09:00:16.976Z,70.81
2019-03-31T09:02:46.420Z,73.77
2019-03-31T09:05:16.060Z,71.47
2019-03-31T09:07:47.050Z,64.31
2019-03-31T09:10:19.011Z,63.16
2019-03-31T09:12:48.938Z,63.92
2019-03-31T09:15:18.355Z,70.45
2019-03-31T09:17:47.673Z,71.74
2019-03-31T09:20:17.356Z,66.12
2019-03-31T09:22:46.672Z,65.09
2019-03-31T09:25:16.034Z,66.00
2019-03-31T09:27:45.368Z,71.17
2019-03-31T09:30:15.404Z,72.07
2019-03-31T09:32:44.733Z,72.21
2019-03-31T09:35:14.482Z,67.39
2019-03-31T09:37:43.887Z,61.57
2019-03-31T09:40:14.028Z,61.43
2019-03-31T09:42:43.356Z,58.60
2019-03-31T09:45:13.604Z,55.68
2019-03-31T09:47:42.929Z,61.89
2019-03-31T09:50:17.234Z,63.80
2019-03-31T09:52:45.563Z,57.33
2019-03-31T09:55:15.519Z,54.27
2019-03-31T09:57:44.854Z,51.59
2019-03-31T10:00:17.508Z,53.78
2019-03-31T10:02:46.937Z,55.17
2019-03-31T10:05:16.891Z,58.16
2019-03-31T10:07:47.177Z,55.15
2019-03-31T10:10:40.056Z,56.51
2019-03-31T10:13:09.403Z,56.64
2019-03-31T10:15:38.795Z,55.61
2019-03-31T10:18:08.161Z,56.29
2019-03-31T10:20:37.652Z,54.24
2019-03-31T10:23:06.942Z,52.94
2019-03-31T10:25:36.559Z,54.27
2019-03-31T10:28:05.930Z,58.81
2019-03-31T10:30:37.335Z,56.33
2019-03-31T10:33:08.866Z,53.43
2019-03-31T10:35:38.454Z,53.67
2019-03-31T10:38:08.268Z,55.49
2019-03-31T10:40:38.354Z,55.08
2019-03-31T10:43:07.666Z,52.98
2019-03-31T10:45:36.976Z,54.87
2019-03-31T10:48:19.802Z,53.07
2019-03-31T10:50:38.670Z,51.82
2019-03-31T10:53:08.063Z,52.40
2019-03-31T10:55:37.370Z,53.88
2019-03-31T10:58:06.897Z,51.51
2019-03-31T11:00:37.987Z,52.65
2019-03-31T11:03:08.530Z,52.72
2019-03-31T11:05:37.989Z,53.05
2019-03-31T11:08:07.624Z,52.44
2019-03-31T11:10:37.320Z,49.97
2019-03-31T11:13:07.049Z,48.39
2019-03-31T11:15:36.531Z,49.47
2019-03-31T11:18:05.896Z,47.63
2019-03-31T11:20:35.235Z,45.83
2019-03-31T11:23:21.543Z,46.38
2019-03-31T11:25:50.913Z,47.78
2019-03-31T11:28:20.233Z,48.63
2019-03-31T11:30:49.573Z,46.03
2019-03-31T11:33:19.035Z,44.05
2019-03-31T11:35:48.437Z,45.56
2019-03-31T11:38:17.771Z,45.50
2019-03-31T11:40:47.076Z,47.24
2019-03-31T11:43:16.403Z,53.87
2019-03-31T11:45:45.772Z,56.53
2019-03-31T11:48:15.193Z,59.43
2019-03-31T11:50:44.967Z,58.78
2019-03-31T11:53:14.294Z,56.97
2019-03-31T11:55:44.191Z,56.47
2019-03-31T11:58:13.532Z,55.46
2019-03-31T12:00:44.842Z,54.59
2019-03-31T12:03:14.464Z,55.47
2019-03-31T12:05:44.018Z,54.77
2019-03-31T12:08:13.488Z,51.83
2019-03-31T12:10:42.975Z,53.33
2019-03-31T12:13:12.548Z,55.22
2019-03-31T12:15:41.968Z,57.09
2019-03-31T12:18:11.511Z,57.52
2019-03-31T12:20:40.983Z,58.22
2019-03-31T12:23:10.496Z,56.58
2019-03-31T12:25:39.904Z,58.90
2019-03-31T12:28:09.202Z,58.47
2019-03-31T12:30:38.512Z,57.86
2019-03-31T12:33:07.848Z,59.68
2019-03-31T12:35:37.149Z,55.20
2019-03-31T12:38:06.705Z,56.10
2019-03-31T12:40:37.356Z,58.95
2019-03-31T12:43:06.759Z,61.13
2019-03-31T12:45:36.112Z,60.86
2019-03-31T12:48:05.870Z,62.04
2019-03-31T12:50:35.206Z,63.93
2019-03-31T12:53:04.952Z,65.03
2019-03-31T12:55:34.477Z,65.91
2019-03-31T12:58:03.779Z,66.34
2019-03-31T13:00:33.246Z,65.75
2019-03-31T13:03:02.525Z,64.81
2019-03-31T13:05:31.872Z,65.81
2019-03-31T13:08:01.365Z,65.66
2019-03-31T13:10:30.695Z,66.88
2019-03-31T13:13:00.205Z,64.39
2019-03-31T13:15:29.588Z,60.77
2019-03-31T13:17:58.902Z,60.91
2019-03-31T13:20:28.232Z,60.64
2019-03-31T13:22:57.586Z,60.79
2019-03-31T13:25:27.773Z,58.81
2019-03-31T13:27:57.064Z,60.27
2019-03-31T13:30:26.697Z,61.77
2019-03-31T13:32:57.616Z,62.85
2019-03-31T13:35:27.170Z,63.68
2019-03-31T13:38:09.970Z,61.50
2019-03-31T13:40:27.613Z,61.13
2019-03-31T13:42:57.185Z,64.00
2019-03-31T13:45:26.506Z,61.96
2019-03-31T13:47:58.519Z,61.98
2019-03-31T13:50:27.041Z,63.55
2019-03-31T13:52:56.365Z,65.64
2019-03-31T13:55:25.717Z,65.35
2019-03-31T13:57:57.661Z,65.75
2019-03-31T14:00:34.709Z,63.76
2019-03-31T14:03:04.290Z,62.92
2019-03-31T14:05:33.688Z,65.13
2019-03-31T14:08:03.233Z,63.88
2019-03-31T14:10:32.551Z,63.32
2019-03-31T14:13:01.933Z,64.41
2019-03-31T14:15:31.420Z,64.35
2019-03-31T14:18:00.738Z,64.65
2019-03-31T14:20:30.058Z,63.43
2019-03-31T14:22:59.390Z,62.26
2019-03-31T14:25:28.689Z,64.08
2019-03-31T14:27:58.013Z,62.82
2019-03-31T14:30:27.302Z,62.96
2019-03-31T14:32:57.205Z,62.22
2019-03-31T14:35:26.578Z,63.58
2019-03-31T14:37:56.091Z,65.68
2019-03-31T14:40:25.378Z,65.82
2019-03-31T14:42:54.717Z,65.21
2019-03-31T14:45:33.358Z,65.59
2019-03-31T14:48:02.793Z,64.60
2019-03-31T14:50:36.798Z,63.75
2019-03-31T14:53:06.664Z,64.24
2019-03-31T14:55:36.404Z,64.14
2019-03-31T14:58:08.203Z,64.90
2019-03-31T15:00:37.401Z,65.59
2019-03-31T15:03:06.740Z,65.94
2019-03-31T15:05:36.502Z,65.60
2019-03-31T15:08:07.171Z,66.73
2019-03-31T15:10:36.465Z,65.32
2019-03-31T15:13:05.854Z,64.31
2019-03-31T15:15:35.261Z,63.67
2019-03-31T15:18:05.053Z,65.01
2019-03-31T15:20:34.353Z,64.19
2019-03-31T15:23:03.915Z,64.71
2019-03-31T15:25:33.336Z,66.76
2019-03-31T15:28:02.817Z,66.43
2019-03-31T15:30:32.161Z,65.16
2019-03-31T15:33:01.548Z,66.17
2019-03-31T15:35:30.941Z,65.85
2019-03-31T15:38:00.366Z,66.03
2019-03-31T15:40:29.970Z,68.88
2019-03-31T15:42:59.397Z,66.75
2019-03-31T15:45:28.821Z,65.61
2019-03-31T15:47:58.147Z,65.89
2019-03-31T15:50:27.630Z,66.54
2019-03-31T15:52:57.370Z,68.24
2019-03-31T15:55:26.967Z,66.88
2019-03-31T15:57:56.380Z,67.33
2019-03-31T16:00:26.822Z,68.58
2019-03-31T16:02:56.613Z,68.50
2019-03-31T16:05:26.151Z,68.17
2019-03-31T16:07:56.881Z,69.97
2019-03-31T16:10:26.856Z,70.98
2019-03-31T16:12:57.066Z,71.62
2019-03-31T16:15:28.039Z,70.62
2019-03-31T16:17:57.966Z,71.49
2019-03-31T16:20:27.446Z,72.99
2019-03-31T16:22:56.965Z,71.91
2019-03-31T16:25:28.101Z,71.53
2019-03-31T16:27:57.470Z,70.37
2019-03-31T16:30:26.875Z,69.57
2019-03-31T16:32:56.389Z,70.85
2019-03-31T16:35:26.152Z,70.87
2019-03-31T16:37:55.489Z,70.59
2019-03-31T16:40:25.006Z,71.55
2019-03-31T16:42:54.421Z,71.58
2019-03-31T16:45:24.022Z,72.93
2019-03-31T16:47:53.334Z,71.78
2019-03-31T16:50:22.669Z,72.46
2019-03-31T16:52:52.767Z,73.38
2019-03-31T16:55:22.479Z,71.68
2019-03-31T16:57:51.812Z,72.04
2019-03-31T17:00:21.666Z,71.36
2019-03-31T17:02:50.985Z,71.87
2019-03-31T17:05:22.045Z,72.32
2019-03-31T17:07:51.367Z,70.98
2019-03-31T17:10:20.752Z,71.57
2019-03-31T17:12:50.068Z,72.10
2019-03-31T17:15:19.381Z,72.75
2019-03-31T17:17:49.001Z,72.14
2019-03-31T17:20:18.741Z,71.26
2019-03-31T17:22:48.024Z,72.13
2019-03-31T17:25:17.350Z,73.93
2019-03-31T17:27:46.644Z,72.03
2019-03-31T17:30:16.097Z,73.15
2019-03-31T17:32:45.736Z,73.52
2019-03-31T17:35:15.241Z,72.71
2019-03-31T17:37:44.702Z,72.72
2019-03-31T17:40:14.389Z,72.83
2019-03-31T17:42:43.888Z,72.46
2019-03-31T17:45:13.342Z,73.78
2019-03-31T17:47:42.680Z,73.37
2019-03-31T17:50:12.652Z,73.68
2019-03-31T17:52:43.473Z,73.79
2019-03-31T17:55:13.032Z,75.99
2019-03-31T17:57:42.892Z,75.39
2019-03-31T18:00:13.435Z,75.71
2019-03-31T18:02:42.722Z,75.23
2019-03-31T18:05:12.644Z,76.55
2019-03-31T18:07:41.982Z,77.85
2019-03-31T18:10:20.749Z,77.70
2019-03-31T18:12:43.502Z,76.87
2019-03-31T18:15:13.693Z,79.12
2019-03-31T18:17:43.452Z,77.49
2019-03-31T18:20:13.066Z,77.77
2019-03-31T18:22:42.358Z,78.18
2019-03-31T18:25:12.588Z,79.38
2019-03-31T18:27:41.912Z,78.81
2019-03-31T18:30:12.646Z,79.37
2019-03-31T18:32:41.925Z,80.15
2019-03-31T18:35:11.421Z,79.61
2019-03-31T18:37:41.174Z,79.35
2019-03-31T18:40:10.610Z,79.16
2019-03-31T18:42:40.478Z,78.57
2019-03-31T18:45:10.070Z,79.06
2019-03-31T18:47:39.499Z,81.50
2019-03-31T18:50:09.114Z,81.23
2019-03-31T18:52:38.448Z,81.96
2019-03-31T18:55:09.627Z,81.85
2019-03-31T18:57:49.484Z,81.51
2019-03-31T19:00:23.839Z,79.72
2019-03-31T19:03:11.134Z,79.01
2019-03-31T19:05:50.935Z,80.06
2019-03-31T19:08:24.819Z,79.64
2019-03-31T19:11:01.569Z,80.01
2019-03-31T19:13:38.263Z,80.08
2019-03-31T19:16:25.747Z,80.99
2019-03-31T19:19:08.693Z,80.16
2019-03-31T19:21:55.739Z,80.85
2019-03-31T19:24:26.766Z,79.98
2019-03-31T19:27:00.770Z,80.51
2019-03-31T19:29:41.680Z,80.75
2019-03-31T19:32:15.569Z,81.70
2019-03-31T19:34:46.758Z,81.42
2019-03-31T19:37:23.483Z,82.37
2019-03-31T19:40:10.527Z,82.56
2019-03-31T19:42:44.166Z,81.93
2019-03-31T19:45:31.099Z,82.91
2019-03-31T19:48:04.986Z,82.61
2019-03-31T19:50:50.764Z,82.25
2019-03-31T19:53:27.939Z,82.31
2019-03-31T19:56:13.874Z,82.76
2019-03-31T19:58:53.776Z,83.66
2019-03-31T20:01:41.149Z,83.64
2019-03-31T20:04:12.103Z,85.30
2019-03-31T20:06:43.049Z,85.47
2019-03-31T20:09:30.314Z,84.62
2019-03-31T20:12:04.039Z,84.57
2019-03-31T20:14:37.795Z,84.49
2019-03-31T20:17:08.769Z,85.06
2019-03-31T20:19:45.895Z,84.71
2019-03-31T20:22:16.908Z,85.75
2019-03-31T20:24:54.032Z,85.79
2019-03-31T20:27:30.934Z,85.60
2019-03-31T20:30:11.033Z,85.46
2019-03-31T20:32:42.134Z,86.66
2019-03-31T20:35:19.349Z,86.33
2019-03-31T20:38:05.772Z,86.44
2019-03-31T20:40:36.901Z,86.28
2019-03-31T20:43:24.232Z,86.27
2019-03-31T20:45:53.534Z,87.08
2019-03-31T20:48:22.981Z,87.68
2019-03-31T20:50:52.267Z,87.47
2019-03-31T20:53:21.797Z,87.62
2019-03-31T20:55:51.171Z,87.89
2019-03-31T20:58:20.483Z,88.50
2019-03-31T21:00:50.007Z,87.48
2019-03-31T21:03:19.294Z,88.31
2019-03-31T21:05:48.604Z,89.82
2019-03-31T21:08:17.916Z,89.67
2019-03-31T21:10:47.221Z,89.11
2019-03-31T21:13:16.551Z,89.38
2019-03-31T21:15:46.222Z,90.12
2019-03-31T21:18:15.538Z,90.32
2019-03-31T21:20:44.837Z,90.74
2019-03-31T21:23:14.152Z,90.66
2019-03-31T21:25:43.437Z,90.32
2019-03-31T21:28:12.760Z,91.05
2019-03-31T21:30:42.034Z,92.94
2019-03-31T21:33:11.359Z,93.26
2019-03-31T21:35:40.652Z,92.90
2019-03-31T21:38:09.965Z,93.47
2019-03-31T21:40:39.246Z,94.67
2019-03-31T21:43:08.557Z,95.53
2019-03-31T21:45:37.867Z,96.06
2019-03-31T21:48:07.295Z,95.80
2019-03-31T21:50:36.579Z,95.83
2019-03-31T21:53:05.914Z,95.02
2019-03-31T21:55:35.219Z,95.37
2019-03-31T21:58:04.543Z,95.84
2019-03-31T22:00:53.718Z,96.35
2019-03-31T22:03:23.161Z,96.08
2019-03-31T22:05:52.801Z,95.98
2019-03-31T22:08:22.079Z,96.00
2019-03-31T22:10:51.449Z,96.20
2019-03-31T22:13:20.743Z,98.43
2019-03-31T22:15:50.341Z,98.10
2019-03-31T22:18:19.616Z,98.02
2019-03-31T22:20:48.904Z,98.69
2019-03-31T22:23:18.219Z,99.18
2019-03-31T22:25:47.562Z,99.69
2019-03-31T22:28:17.042Z,98.98
2019-03-31T22:30:46.707Z,98.98
2019-03-31T22:33:16.614Z,99.03
2019-03-31T22:35:47.733Z,100.00
2019-03-31T22:38:17.441Z,100.00
2019-03-31T22:40:46.757Z,100.00
2019-03-31T22:43:16.347Z,100.00
2019-03-31T22:45:45.862Z,100.00
2019-03-31T22:48:15.163Z,100.00
2019-03-31T22:50:44.483Z,100.00
2019-03-31T22:53:14.015Z,100.00
2019-03-31T22:55:43.478Z,100.00
2019-03-31T22:58:12.991Z,100.00
2019-03-31T23:00:43.007Z,100.00
2019-03-31T23:03:12.542Z,100.00
2019-03-31T23:05:41.858Z,100.00
2019-03-31T23:08:11.339Z,100.00
2019-03-31T23:10:41.170Z,100.00
2019-03-31T23:13:10.485Z,100.00
2019-03-31T23:15:39.764Z,100.00
2019-03-31T23:18:09.338Z,100.00
2019-03-31T23:20:39.053Z,100.00
2019-03-31T23:23:08.335Z,100.00
2019-03-31T23:39:11.950Z,100.00
2019-03-31T23:41:41.267Z,100.00
2019-03-31T23:44:10.555Z,100.00
2019-03-31T23:46:40.262Z,100.00
2019-03-31T23:49:09.749Z,100.00
2019-03-31T23:51:39.143Z,100.00
2019-03-31T23:54:08.438Z,100.00
2019-03-31T23:56:37.766Z,100.00
2019-03-31T23:59:07.045Z,100.00
